Terminal Aerodrome Forecast
Issued by NWS San Angelo, TX

Home | Current Version | Previous Version | Text Only | Print | Product List | Glossary On
Versions: 1 2 3 4 5 6 7 8 9 10 11 12 13 14 15 16
635
FTUS44 KSJT 211720
TAFABI
TAF
KABI 211720Z 2118/2218 21014G20KT P6SM SCT150
     FM212000 24024G30KT P6SM VCSH BKN150
     FM220000 24016G22KT P6SM OVC150
     FM220600 26025G35KT P6SM SKC=

USA.gov is the U.S. government's official web portal to all federal, state and local government web resources and services.